Time;durP1;ratioP1;P1;durP2;ratioP2;P2;SDS_P1;SDS_P2;PMS_P1;PMS_P2;Temp;Humidity;BMP_temperature;BMP_pressure;BME280_temperature;BME280_humidity;BME280_pressure;Samples;Min_cycle;Max_cycle;Signal;HPM_P1;HPM_P2
2022/09/27 00:00:21;;;;;;;;;;;;;;;8.56;90.44;95177.59;30001;983;1876;-55
2022/09/27 00:00:56;;;;;;;;;;;;;;;8.54;90.71;95179.84;30001;982;1880;-54
2022/09/27 00:01:27;;;;;;;;;;;;;;;8.52;90.38;95182.06;30001;982;1876;-55
2022/09/27 00:01:59;;;;;;;;;;;;;;;8.52;90.92;95171.25;30001;982;1880;-56
2022/09/27 00:02:30;;;;;;;;;;;;;;;8.53;91.19;95172.84;30001;982;1876;-55
2022/09/27 00:03:01;;;;;;;;;;;;;;;8.51;91.19;95180.47;30001;982;1881;-55
2022/09/27 00:03:33;;;;;;;;;;;;;;;8.53;91.52;95172.06;30001;982;1863;-55
2022/09/27 00:04:06;;;;;;;;;;;;;;;8.51;91.67;95175.06;30001;983;1870;-55
2022/09/27 00:04:37;;;;;;;;;;;;;;;8.48;91.58;95175.72;30001;983;1831;-54
2022/09/27 00:05:08;;;;;;;;;;;;;;;8.47;91.44;95162.50;30001;983;1871;-55
2022/09/27 00:05:39;;;;;;;;;;;;;;;8.50;91.63;95170.78;30001;983;1875;-51
2022/09/27 00:06:21;;;;;;;;;;;;;;;8.52;91.54;95173.97;30001;983;1879;-55
2022/09/27 00:06:52;;;;;;;;;;;;;;;8.57;91.07;95171.09;30001;983;1875;-51
2022/09/27 00:07:23;;;;;;;;;;;;;;;8.61;91.19;95163.13;30001;983;1867;-56
2022/09/27 00:07:54;;;;;;;;;;;;;;;8.59;90.64;95160.75;30001;983;1867;-55
2022/09/27 00:08:25;;;;;;;;;;;;;;;8.57;90.95;95171.09;30001;982;1880;-55
2022/09/27 00:08:57;;;;;;;;;;;;;;;8.56;90.79;95171.41;30001;982;1863;-55
2022/09/27 00:09:29;;;;;;;;;;;;;;;8.53;90.87;95172.06;30001;982;1797;-54
2022/09/27 00:10:00;;;;;;;;;;;;;;;8.51;90.57;95158.84;30001;982;1876;-55
2022/09/27 00:10:31;;;;;;;;;;;;;;;8.57;91.13;95168.37;30001;982;1881;-55
2022/09/27 00:11:04;;;;;;;;;;;;;;;8.58;91.09;95167.28;30001;982;1876;-55
2022/09/27 00:11:37;;;;;;;;;;;;;;;8.58;91.09;95169.97;30001;983;1879;-55
2022/09/27 00:12:09;;;;;;;;;;;;;;;8.58;90.91;95172.69;30001;983;1876;-55
2022/09/27 00:12:40;;;;;;;;;;;;;;;8.58;91.15;95171.88;30001;983;1880;-54
2022/09/27 00:13:11;;;;;;;;;;;;;;;8.55;91.58;95170.63;30001;983;1876;-55
2022/09/27 00:13:42;;;;;;;;;;;;;;;8.54;91.61;95166.31;30001;983;1880;-51
2022/09/27 00:14:14;;;;;;;;;;;;;;;8.57;91.61;95173.78;30001;983;1748;-55
2022/09/27 00:14:44;;;;;;;;;;;;;;;8.58;91.39;95169.97;30001;983;1871;-56
2022/09/27 00:15:15;;;;;;;;;;;;;;;8.58;91.27;95174.59;30001;983;1876;-55
2022/09/27 00:15:46;;;;;;;;;;;;;;;8.56;91.59;95166.78;30001;982;1880;-56
2022/09/27 00:16:17;;;;;;;;;;;;;;;8.58;91.57;95167.28;30001;982;1876;-55
2022/09/27 00:16:48;;;;;;;;;;;;;;;8.57;91.12;95165.69;30001;982;1881;-55
2022/09/27 00:17:19;;;;;;;;;;;;;;;8.55;91.85;95173.31;30001;982;1876;-55
2022/09/27 00:17:51;;;;;;;;;;;;;;;8.53;92.30;95170.13;30001;982;1881;-55
2022/09/27 00:18:22;;;;;;;;;;;;;;;8.53;91.95;95164.72;30001;983;1875;-51
2022/09/27 00:18:57;;;;;;;;;;;;;;;8.52;92.28;95168.56;30001;983;1867;-52
2022/09/27 00:19:28;;;;;;;;;;;;;;;8.51;92.20;95168.87;30001;983;1866;-55
2022/09/27 00:19:59;;;;;;;;;;;;;;;8.53;92.54;95161.25;30001;983;1880;-55
2022/09/27 00:20:30;;;;;;;;;;;;;;;8.58;91.92;95169.97;30001;983;1875;-54
2022/09/27 00:21:05;;;;;;;;;;;;;;;8.60;91.95;95161.53;30001;983;1880;-54
2022/09/27 00:21:37;;;;;;;;;;;;;;;8.60;91.73;95156.94;30001;983;1875;-55
2022/09/27 00:22:08;;;;;;;;;;;;;;;8.59;91.92;95160.75;30001;983;1880;-55
2022/09/27 00:22:38;;;;;;;;;;;;;;;8.58;92.19;95159.16;30001;983;1876;-54
2022/09/27 00:23:09;;;;;;;;;;;;;;;8.65;91.94;95162.16;30001;983;1880;-54
2022/09/27 00:23:42;;;;;;;;;;;;;;;8.65;91.57;95154.06;30001;982;1862;-55
2022/09/27 00:24:14;;;;;;;;;;;;;;;8.63;91.62;95167.09;30001;982;1872;-55
2022/09/27 00:24:45;;;;;;;;;;;;;;;8.60;91.59;95156.94;30001;982;1876;-55
2022/09/27 00:25:17;;;;;;;;;;;;;;;8.59;91.74;95160.75;30001;982;1868;-54
2022/09/27 00:25:54;;;;;;;;;;;;;;;8.58;91.97;95159.16;30001;983;1867;-55
2022/09/27 00:26:26;;;;;;;;;;;;;;;8.57;92.35;95156.78;30001;983;1880;-54
2022/09/27 00:26:58;;;;;;;;;;;;;;;8.55;92.41;95153.59;30001;983;1876;-55
2022/09/27 00:27:29;;;;;;;;;;;;;;;8.53;92.51;95162.03;30001;983;1879;-54
2022/09/27 00:28:01;;;;;;;;;;;;;;;8.51;92.21;95153.44;30001;983;1876;-55
2022/09/27 00:28:32;;;;;;;;;;;;;;;8.51;92.60;95152.66;30001;983;1880;-54
2022/09/27 00:29:03;;;;;;;;;;;;;;;8.48;93.01;95154.09;30001;983;1863;-55
2022/09/27 00:29:36;;;;;;;;;;;;;;;8.49;93.06;95150.28;30001;983;1871;-52
2022/09/27 00:30:08;;;;;;;;;;;;;;;8.50;93.00;95156.47;30001;983;1862;-51
2022/09/27 00:30:42;;;;;;;;;;;;;;;8.49;93.12;95155.69;30001;983;1871;-54
2022/09/27 00:31:19;;;;;;;;;;;;;;;8.50;92.94;95154.56;30001;982;1876;-54
2022/09/27 00:31:50;;;;;;;;;;;;;;;8.54;93.44;95160.91;30001;982;1881;-53
2022/09/27 00:32:24;;;;;;;;;;;;;;;8.55;92.89;95148.19;30001;982;1876;-55
2022/09/27 00:32:55;;;;;;;;;;;;;;;8.57;92.86;95149.47;30001;982;1881;-55
2022/09/27 00:33:26;;;;;;;;;;;;;;;8.57;92.50;95152.16;30001;983;1875;-54
2022/09/27 00:33:58;;;;;;;;;;;;;;;8.54;92.93;95163.63;30001;983;1879;-51
2022/09/27 00:34:31;;;;;;;;;;;;;;;8.52;93.12;95155.03;30001;983;1875;-55
2022/09/27 00:35:02;;;;;;;;;;;;;;;8.52;93.05;95159.66;30001;983;1867;-54
2022/09/27 00:35:37;;;;;;;;;;;;;;;8.55;92.95;95149.00;30001;983;1866;-53
2022/09/27 00:36:08;;;;;;;;;;;;;;;8.57;92.74;95160.28;30001;983;1880;-54
2022/09/27 00:36:39;;;;;;;;;;;;;;;8.62;92.76;95154.69;30002;983;1876;-55
2022/09/27 00:37:10;;;;;;;;;;;;;;;8.67;92.57;95156.41;30002;983;1880;-60
2022/09/27 00:37:41;;;;;;;;;;;;;;;8.74;91.91;95154.81;30002;983;1875;-54
2022/09/27 00:38:12;;;;;;;;;;;;;;;8.73;91.59;95150.50;30002;983;1880;-55
2022/09/27 00:38:43;;;;;;;;;;;;;;;8.70;91.46;95145.75;30002;982;1876;-52
2022/09/27 00:39:15;;;;;;;;;;;;;;;8.67;91.66;95146.37;30002;982;1880;-56
2022/09/27 00:39:46;;;;;;;;;;;;;;;8.64;92.28;95138.16;30002;982;1862;-54
2022/09/27 00:40:17;;;;;;;;;;;;;;;8.62;92.02;95143.88;30002;982;1858;-52
2022/09/27 00:40:48;;;;;;;;;;;;;;;8.60;92.02;95146.13;30002;982;1876;-55
2022/09/27 00:41:23;;;;;;;;;;;;;;;8.60;92.24;95145.31;30002;983;1879;-55
2022/09/27 00:41:54;;;;;;;;;;;;;;;8.62;92.77;95138.47;30002;983;1875;-52
2022/09/27 00:42:25;;;;;;;;;;;;;;;8.64;92.91;95141.66;30002;983;1880;-55
2022/09/27 00:42:56;;;;;;;;;;;;;;;8.73;91.99;95138.91;30002;983;1876;-54
2022/09/27 00:43:41;;;;;;;;;;;;;;;8.72;91.89;95143.50;30002;983;1880;-55
2022/09/27 00:44:44;;;;;;;;;;;;;;;8.72;92.22;95143.50;30002;983;1875;-54
2022/09/27 00:45:16;;;;;;;;;;;;;;;8.67;91.84;95146.37;30002;983;1863;-56
2022/09/27 00:46:00;;;;;;;;;;;;;;;8.67;92.02;95145.59;30002;983;1867;-56
2022/09/27 00:46:51;;;;;;;;;;;;;;;8.68;92.56;95147.97;30002;982;1880;-55
2022/09/27 00:47:40;;;;;;;;;;;;;;;8.66;92.22;95142.09;30002;982;1872;-54
2022/09/27 00:48:12;;;;;;;;;;;;;;;8.65;92.22;95143.25;30002;982;1881;-55
2022/09/27 00:48:44;;;;;;;;;;;;;;;8.65;92.25;95137.03;30002;983;1875;-54
2022/09/27 00:49:34;;;;;;;;;;;;;;;8.63;92.50;95142.78;30002;983;1879;-54
2022/09/27 00:50:20;;;;;;;;;;;;;;;8.59;92.34;95144.53;30002;983;1871;-54
2022/09/27 00:50:53;;;;;;;;;;;;;;;8.59;92.39;95132.91;30002;983;1867;-54
2022/09/27 00:51:24;;;;;;;;;;;;;;;8.58;92.92;95137.53;30002;974;1876;-54
2022/09/27 00:52:01;;;;;;;;;;;;;;;8.60;93.63;95140.72;30002;983;1880;-55
2022/09/27 00:52:42;;;;;;;;;;;;;;;8.61;93.17;95136.91;30002;983;1875;-56
2022/09/27 00:53:45;;;;;;;;;;;;;;;8.76;92.96;95140.16;30002;982;1880;-55
2022/09/27 00:54:18;;;;;;;;;;;;;;;8.74;92.14;95133.16;30002;982;1872;-54
2022/09/27 00:54:52;;;;;;;;;;;;;;;8.72;92.01;95131.91;30002;982;1880;-55
2022/09/27 00:55:26;;;;;;;;;;;;;;;8.68;92.28;95126.34;30002;982;1863;-56
2022/09/27 00:56:00;;;;;;;;;;;;;;;8.76;92.22;95132.06;30002;982;1872;-55
2022/09/27 00:56:31;;;;;;;;;;;;;;;8.76;91.63;95126.66;30002;983;1862;-54
2022/09/27 00:57:03;;;;;;;;;;;;;;;8.77;91.92;95123.63;30002;983;1787;-55
2022/09/27 00:57:34;;;;;;;;;;;;;;;8.74;91.55;95127.75;30002;983;1875;-55
2022/09/27 00:58:06;;;;;;;;;;;;;;;8.73;91.70;95118.06;30002;983;1879;-52
2022/09/27 00:58:42;;;;;;;;;;;;;;;8.71;92.41;95120.28;30002;983;1863;-54
2022/09/27 00:59:25;;;;;;;;;;;;;;;8.68;92.66;95120.16;30002;983;1871;-55
2022/09/27 01:00:08;;;;;;;;;;;;;;;8.74;92.20;95129.69;30002;983;1875;-56
2022/09/27 01:00:43;;;;;;;;;;;;;;;8.84;91.55;95117.72;30002;982;1867;-54
2022/09/27 01:01:14;;;;;;;;;;;;;;;8.84;91.31;95129.31;30002;982;1867;-54
2022/09/27 01:01:50;;;;;;;;;;;;;;;8.81;91.22;95127.28;30002;982;1880;-54
2022/09/27 01:02:21;;;;;;;;;;;;;;;8.80;91.45;95127.59;30002;982;1876;-55
2022/09/27 01:02:53;;;;;;;;;;;;;;;8.77;91.62;95128.25;30002;982;1881;-53
2022/09/27 01:03:33;;;;;;;;;;;;;;;8.79;91.91;95126.00;30002;982;1876;-55
2022/09/27 01:04:09;;;;;;;;;;;;;;;8.74;92.12;95130.47;30002;983;1880;-54
2022/09/27 01:04:41;;;;;;;;;;;;;;;8.71;92.02;95130.31;30002;983;1876;-54
2022/09/27 01:05:13;;;;;;;;;;;;;;;8.69;92.41;95136.03;30002;983;1867;-54
2022/09/27 01:05:45;;;;;;;;;;;;;;;8.70;92.31;95134.94;30002;983;1867;-54
2022/09/27 01:06:18;;;;;;;;;;;;;;;8.69;92.54;95136.03;30002;983;1880;-55
2022/09/27 01:06:50;;;;;;;;;;;;;;;8.67;92.45;95132.88;30002;983;1875;-52
2022/09/27 01:07:21;;;;;;;;;;;;;;;8.66;92.47;95134.00;30002;983;1880;-54
2022/09/27 01:07:55;;;;;;;;;;;;;;;8.65;92.82;95127.03;30002;982;1876;-55
2022/09/27 01:08:26;;;;;;;;;;;;;;;8.64;92.80;95125.44;30002;982;1867;-54
2022/09/27 01:08:57;;;;;;;;;;;;;;;8.62;93.00;95127.66;30002;982;1867;-55
2022/09/27 01:09:28;;;;;;;;;;;;;;;8.62;93.26;95127.66;30002;982;1881;-55
2022/09/27 01:10:00;;;;;;;;;;;;;;;8.60;93.17;95129.09;30002;982;1876;-52
2022/09/27 01:10:36;;;;;;;;;;;;;;;8.58;93.10;95126.72;30002;982;1881;-55
2022/09/27 01:11:27;;;;;;;;;;;;;;;8.66;93.11;95128.56;30002;983;1875;-52
2022/09/27 01:12:16;;;;;;;;;;;;;;;8.66;92.94;95128.56;30002;983;1879;-55
2022/09/27 01:13:07;;;;;;;;;;;;;;;8.64;92.64;95130.84;30002;983;1867;-55
2022/09/27 01:14:01;;;;;;;;;;;;;;;8.70;92.37;95137.63;30002;983;1862;-56
2022/09/27 01:14:55;;;;;;;;;;;;;;;8.72;92.09;95138.09;30002;983;1867;-54
2022/09/27 01:15:46;;;;;;;;;;;;;;;8.70;92.45;95134.94;30002;982;1875;-52
2022/09/27 01:16:28;;;;;;;;;;;;;;;8.69;92.63;95133.34;30002;982;1872;-54
2022/09/27 01:17:19;;;;;;;;;;;;;;;8.70;92.24;95132.22;30002;982;1880;-54
2022/09/27 01:18:10;;;;;;;;;;;;;;;8.68;92.38;95134.47;30002;982;1872;-54
2022/09/27 01:19:04;;;;;;;;;;;;;;;8.72;92.43;95137.31;30002;983;1862;-54
2022/09/27 01:19:53;;;;;;;;;;;;;;;8.70;92.03;95131.44;30002;983;1862;-55
2022/09/27 01:20:46;;;;;;;;;;;;;;;8.73;92.94;95134.28;30002;983;1871;-54
2022/09/27 01:21:29;;;;;;;;;;;;;;;8.80;92.35;95133.00;30002;983;1863;-54
2022/09/27 01:22:05;;;;;;;;;;;;;;;8.80;91.68;95144.59;30002;983;1872;-54
2022/09/27 01:22:55;;;;;;;;;;;;;;;8.77;91.82;95139.06;30002;983;1876;-54
2022/09/27 01:23:47;;;;;;;;;;;;;;;8.70;92.26;95140.34;30002;982;1872;-54
2022/09/27 01:24:28;;;;;;;;;;;;;;;8.65;92.32;95137.84;30002;982;1876;-55
2022/09/27 01:25:11;;;;;;;;;;;;;;;8.65;92.47;95135.12;30002;982;1880;-53
2022/09/27 01:26:00;;;;;;;;;;;;;;;8.64;92.92;95135.47;30002;983;1875;-54
2022/09/27 01:27:09;;;;;;;;;;;;;;;8.64;93.09;95135.47;30002;983;1858;-53
2022/09/27 01:27:55;;;;;;;;;;;;;;;8.64;92.45;95125.44;30002;983;1862;-53
2022/09/27 01:28:44;;;;;;;;;;;;;;;8.62;92.57;95126.88;30001;983;1880;-53
2022/09/27 01:29:50;;;;;;;;;;;;;;;8.63;92.21;95129.25;30002;983;1867;-54
2022/09/27 01:30:30;;;;;;;;;;;;;;;8.65;92.63;95131.63;30002;983;1862;-55
2022/09/27 01:31:33;;;;;;;;;;;;;;;8.62;92.69;95122.25;30001;982;1867;-55
2022/09/27 01:32:10;;;;;;;;;;;;;;;8.65;92.32;95127.03;30001;982;1876;-54
2022/09/27 01:33:04;;;;;;;;;;;;;;;8.65;92.39;95129.72;30001;982;1876;-54
2022/09/27 01:34:01;;;;;;;;;;;;;;;8.62;92.93;95126.88;30001;983;1875;-55
2022/09/27 01:34:46;;;;;;;;;;;;;;;8.60;92.98;95127.19;30001;983;1858;-54
2022/09/27 01:35:39;;;;;;;;;;;;;;;8.61;93.09;95131.50;30001;983;1871;-55
2022/09/27 01:36:27;;;;;;;;;;;;;;;8.62;93.07;95121.47;30001;983;1875;-55
2022/09/27 01:37:23;;;;;;;;;;;;;;;8.61;93.15;95126.06;30001;983;1880;-54
2022/09/27 01:38:25;;;;;;;;;;;;;;;8.60;93.24;95124.50;30001;982;1876;-54
2022/09/27 01:39:18;;;;;;;;;;;;;;;8.64;93.69;95124.63;30001;982;1876;-55
2022/09/27 01:40:10;;;;;;;;;;;;;;;8.66;93.54;95128.56;30001;982;1863;-55
2022/09/27 01:40:48;;;;;;;;;;;;;;;8.68;93.08;95126.34;30001;983;1870;-54
2022/09/27 01:41:30;;;;;;;;;;;;;;;8.68;93.02;95129.06;30001;983;1876;-55
2022/09/27 01:42:26;;;;;;;;;;;;;;;8.68;93.04;95131.75;30001;983;1867;-54
2022/09/27 01:43:12;;;;;;;;;;;;;;;8.69;93.22;95122.53;30001;983;1849;-54
2022/09/27 01:43:49;;;;;;;;;;;;;;;8.68;93.71;95129.06;30001;983;1880;-54
2022/09/27 01:44:27;;;;;;;;;;;;;;;8.67;94.10;95126.66;30001;983;1876;-55
2022/09/27 01:45:21;;;;;;;;;;;;;;;8.63;94.30;95123.84;30001;983;1867;-55
2022/09/27 01:46:05;;;;;;;;;;;;;;;8.59;94.75;95128.31;30001;982;1863;-54
2022/09/27 01:46:44;;;;;;;;;;;;;;;8.59;94.92;95133.72;30001;982;1880;-56
2022/09/27 01:47:22;;;;;;;;;;;;;;;8.61;94.66;95128.78;30001;982;1876;-55
2022/09/27 01:48:01;;;;;;;;;;;;;;;8.63;94.35;95126.56;30001;982;1881;-55
2022/09/27 01:48:36;;;;;;;;;;;;;;;8.64;94.33;95130.84;30001;983;1862;-53
2022/09/27 01:49:10;;;;;;;;;;;;;;;8.66;94.27;95134.00;30001;983;1871;-54
2022/09/27 01:49:47;;;;;;;;;;;;;;;8.66;93.86;95123.16;30001;983;1876;-55
2022/09/27 01:50:39;;;;;;;;;;;;;;;8.65;94.62;95132.44;30001;983;1880;-55
2022/09/27 01:51:13;;;;;;;;;;;;;;;8.63;95.06;95129.25;30001;983;1858;-55
2022/09/27 01:51:47;;;;;;;;;;;;;;;8.62;95.04;95130.37;30001;983;1871;-54
2022/09/27 01:52:21;;;;;;;;;;;;;;;8.61;94.73;95136.91;30001;983;1876;-55
2022/09/27 01:52:55;;;;;;;;;;;;;;;8.63;95.13;95129.25;30001;983;1880;-55
2022/09/27 01:53:41;;;;;;;;;;;;;;;8.63;94.95;95131.97;30001;982;1876;-55
2022/09/27 01:54:16;;;;;;;;;;;;;;;8.71;94.30;95136.53;30001;982;1867;-54
2022/09/27 01:54:51;;;;;;;;;;;;;;;8.77;93.83;95130.94;30001;982;1867;-55
2022/09/27 01:55:24;;;;;;;;;;;;;;;8.78;93.63;95130.63;30001;982;1881;-55
2022/09/27 01:55:56;;;;;;;;;;;;;;;8.77;93.50;95136.34;30001;983;1875;-54
2022/09/27 01:56:40;;;;;;;;;;;;;;;8.79;93.36;95126.00;30001;983;1880;-55
2022/09/27 01:57:15;;;;;;;;;;;;;;;8.77;93.37;95133.66;30001;983;1875;-55
2022/09/27 01:57:52;;;;;;;;;;;;;;;8.77;93.28;95122.81;30001;983;1880;-55
2022/09/27 01:58:32;;;;;;;;;;;;;;;8.78;93.69;95129.81;30001;983;1863;-54
2022/09/27 01:59:19;;;;;;;;;;;;;;;8.80;93.45;95133.78;30001;983;1858;-54
2022/09/27 02:00:00;;;;;;;;;;;;;;;8.79;93.70;95118.69;30001;982;1875;-55
2022/09/27 02:00:31;;;;;;;;;;;;;;;8.78;93.45;95124.41;30001;982;1880;-55
2022/09/27 02:01:04;;;;;;;;;;;;;;;8.77;93.43;95125.53;30001;982;1876;-55
2022/09/27 02:01:38;;;;;;;;;;;;;;;8.76;93.86;95127.44;30001;982;1880;-55
2022/09/27 02:02:10;;;;;;;;;;;;;;;8.79;94.19;95128.72;30001;982;1862;-53
2022/09/27 02:02:48;;;;;;;;;;;;;;;8.80;94.04;95122.19;30001;982;1871;-54
2022/09/27 02:03:25;;;;;;;;;;;;;;;8.80;93.62;95122.19;30001;983;1875;-54
2022/09/27 02:03:59;;;;;;;;;;;;;;;8.78;93.64;95119.00;30001;983;1879;-54
2022/09/27 02:04:35;;;;;;;;;;;;;;;8.76;94.26;95123.94;30001;983;1874;-55
2022/09/27 02:05:09;;;;;;;;;;;;;;;8.73;94.72;95134.28;30001;983;1880;-55
2022/09/27 02:05:44;;;;;;;;;;;;;;;8.72;94.48;95138.09;30001;983;1876;-55
2022/09/27 02:06:21;;;;;;;;;;;;;;;8.72;94.68;95137.31;30001;983;1866;-54
2022/09/27 02:06:55;;;;;;;;;;;;;;;8.71;94.71;95133.03;30001;983;1867;-54
2022/09/27 02:07:31;;;;;;;;;;;;;;;8.71;94.76;95131.13;30001;982;1880;-54
2022/09/27 02:08:06;;;;;;;;;;;;;;;8.71;94.50;95133.81;30001;982;1876;-54
2022/09/27 02:08:46;;;;;;;;;;;;;;;8.72;94.55;95130.00;30001;963;1899;-55
2022/09/27 02:09:20;;;;;;;;;;;;;;;8.73;94.50;95133.50;30001;982;1876;-56
2022/09/27 02:10:11;;;;;;;;;;;;;;;8.73;95.18;95128.88;30001;982;1880;-54
2022/09/27 02:10:44;;;;;;;;;;;;;;;8.73;95.43;95137.00;30001;983;1857;-55
2022/09/27 02:11:14;;;;;;;;;;;;;;;8.73;95.06;95139.69;30001;983;1871;-54
2022/09/27 02:11:49;;;;;;;;;;;;;;;8.73;95.51;95138.91;30001;983;1862;-54
2022/09/27 02:12:23;;;;;;;;;;;;;;;8.72;95.15;95140.81;30001;983;1871;-54
2022/09/27 02:12:57;;;;;;;;;;;;;;;8.71;95.48;95136.53;30001;983;1863;-54
2022/09/27 02:13:34;;;;;;;;;;;;;;;8.72;95.20;95138.09;30001;983;1871;-55
2022/09/27 02:14:27;;;;;;;;;;;;;;;8.72;95.49;95143.50;30001;983;1876;-55
2022/09/27 02:15:05;;;;;;;;;;;;;;;8.73;95.30;95144.31;30001;982;1880;-54
2022/09/27 02:15:56;;;;;;;;;;;;;;;8.72;95.34;95138.09;30001;982;1875;-53
2022/09/27 02:16:46;;;;;;;;;;;;;;;8.76;95.48;95145.56;30001;982;1876;-54
2022/09/27 02:17:39;;;;;;;;;;;;;;;8.78;94.89;95143.34;30001;986;1871;-54
2022/09/27 02:18:14;;;;;;;;;;;;;;;8.77;94.56;95145.25;30001;983;1867;-54
2022/09/27 02:18:53;;;;;;;;;;;;;;;8.77;94.43;95150.66;30001;983;1867;-55
2022/09/27 02:19:49;;;;;;;;;;;;;;;8.77;94.90;95139.06;30001;983;1879;-54
2022/09/27 02:20:29;;;;;;;;;;;;;;;8.76;95.22;95151.78;30001;983;1876;-55
2022/09/27 02:21:03;;;;;;;;;;;;;;;8.76;95.26;95150.97;30001;983;1867;-55
2022/09/27 02:21:44;;;;;;;;;;;;;;;8.74;95.95;95154.81;30001;983;1867;-55
2022/09/27 02:22:35;;;;;;;;;;;;;;;8.75;96.30;95152.91;30001;983;1880;-55
2022/09/27 02:23:24;;;;;;;;;;;;;;;8.76;96.18;95154.47;30001;982;1875;-55
2022/09/27 02:23:58;;;;;;;;;;;;;;;8.77;96.39;95158.78;30001;982;1871;-55
2022/09/27 02:24:38;;;;;;;;;;;;;;;8.77;96.14;95161.47;30001;982;1876;-55
2022/09/27 02:25:14;;;;;;;;;;;;;;;8.77;96.07;95160.69;30001;982;1881;-55
2022/09/27 02:26:09;;;;;;;;;;;;;;;8.78;96.65;95167.69;30001;983;1876;-55
2022/09/27 02:26:44;;;;;;;;;;;;;;;8.77;96.80;95164.19;30001;983;1867;-55
2022/09/27 02:27:41;;;;;;;;;;;;;;;8.78;96.68;95173.09;30001;983;1867;-56
2022/09/27 02:28:38;;;;;;;;;;;;;;;8.84;96.39;95166.41;30001;983;1863;-58
2022/09/27 02:29:29;;;;;;;;;;;;;;;8.89;94.62;95168.94;30001;983;1863;-55
2022/09/27 02:30:03;;;;;;;;;;;;;;;8.87;94.48;95166.53;30001;982;1876;-56
2022/09/27 02:30:34;;;;;;;;;;;;;;;8.89;94.71;95168.94;30001;982;1876;-56
2022/09/27 02:31:05;;;;;;;;;;;;;;;8.91;94.74;95169.41;30001;982;1881;-55
2022/09/27 02:31:36;;;;;;;;;;;;;;;8.90;94.49;95170.53;30001;982;1876;-57
2022/09/27 02:32:07;;;;;;;;;;;;;;;8.93;94.20;95170.66;30001;982;1880;-60
2022/09/27 02:32:41;;;;;;;;;;;;;;;8.97;93.83;95173.53;30001;983;1875;-55
2022/09/27 02:33:12;;;;;;;;;;;;;;;9.00;93.50;95173.66;30001;983;1867;-55
2022/09/27 02:33:46;;;;;;;;;;;;;;;9.02;93.76;95176.03;30001;983;1866;-51
2022/09/27 02:34:21;;;;;;;;;;;;;;;9.07;93.48;95175.84;30001;983;1880;-58
2022/09/27 02:34:54;;;;;;;;;;;;;;;9.07;92.62;95167.72;30001;983;1876;-52
2022/09/27 02:35:28;;;;;;;;;;;;;;;9.04;92.91;95166.47;30001;983;1880;-55
2022/09/27 02:36:00;;;;;;;;;;;;;;;9.00;93.36;95170.97;30001;986;1863;-51
2022/09/27 02:36:31;;;;;;;;;;;;;;;8.99;93.28;95174.78;30001;983;1871;-55
2022/09/27 02:37:02;;;;;;;;;;;;;;;9.01;93.54;95172.53;30001;983;1876;-64
2022/09/27 02:37:33;;;;;;;;;;;;;;;8.97;92.98;95176.22;30001;982;1880;-55
2022/09/27 02:38:06;;;;;;;;;;;;;;;8.93;92.87;95176.06;30001;982;1876;-55
2022/09/27 02:38:37;;;;;;;;;;;;;;;8.93;93.22;95176.06;30001;982;1880;-61
2022/09/27 02:39:08;;;;;;;;;;;;;;;8.97;92.79;95181.63;30001;982;1876;-55
2022/09/27 02:39:38;;;;;;;;;;;;;;;8.99;92.44;95182.09;30001;986;1881;-55
2022/09/27 02:40:10;;;;;;;;;;;;;;;8.92;92.58;95169.06;30001;983;1875;-55
2022/09/27 02:40:45;;;;;;;;;;;;;;;8.97;92.59;95176.22;30001;983;1879;-66
2022/09/27 02:41:18;;;;;;;;;;;;;;;9.05;90.20;95178.09;30001;983;1862;-55
2022/09/27 02:41:48;;;;;;;;;;;;;;;9.10;89.31;95169.78;30001;983;1871;-54
2022/09/27 02:42:20;;;;;;;;;;;;;;;9.11;89.12;95176.78;30001;983;1875;-58
2022/09/27 02:42:51;;;;;;;;;;;;;;;9.06;87.88;95169.66;30001;983;1880;-55
2022/09/27 02:43:24;;;;;;;;;;;;;;;9.04;88.47;95165.66;30001;983;1875;-55
2022/09/27 02:43:57;;;;;;;;;;;;;;;8.99;88.37;95163.16;30001;983;1867;-55
2022/09/27 02:44:28;;;;;;;;;;;;;;;8.93;89.17;95164.47;30001;983;1867;-59
2022/09/27 02:44:59;;;;;;;;;;;;;;;8.94;89.73;95163.34;30001;983;1880;-56
2022/09/27 02:45:47;;;;;;;;;;;;;;;8.97;89.08;95173.53;30001;982;1876;-56
2022/09/27 02:46:35;;;;;;;;;;;;;;;8.92;89.05;95171.00;30001;982;1871;-55
2022/09/27 02:47:27;;;;;;;;;;;;;;;8.85;89.55;95167.97;30001;982;1872;-56
2022/09/27 02:48:07;;;;;;;;;;;;;;;8.77;90.20;95166.09;30001;983;1875;-55
2022/09/27 02:48:57;;;;;;;;;;;;;;;8.73;90.39;95172.16;30001;983;1880;-57
2022/09/27 02:49:40;;;;;;;;;;;;;;;8.72;90.10;95165.16;30001;983;1858;-55
2022/09/27 02:50:29;;;;;;;;;;;;;;;8.68;90.35;95166.91;30001;983;1871;-56
2022/09/27 02:51:07;;;;;;;;;;;;;;;8.67;89.32;95173.44;30001;983;1867;-51
2022/09/27 02:51:57;;;;;;;;;;;;;;;8.61;89.74;95172.03;30001;983;1867;-54
2022/09/27 02:52:46;;;;;;;;;;;;;;;8.62;89.13;95179.03;30001;983;1858;-56
2022/09/27 02:53:25;;;;;;;;;;;;;;;8.56;88.22;95182.22;30001;982;1876;-55
2022/09/27 02:54:01;;;;;;;;;;;;;;;8.55;88.93;95186.03;30001;982;1862;-55
2022/09/27 02:54:43;;;;;;;;;;;;;;;8.56;88.92;95183.00;30001;982;1871;-56
2022/09/27 02:55:33;;;;;;;;;;;;;;;8.57;88.58;95181.91;30001;983;1875;-56
2022/09/27 02:56:12;;;;;;;;;;;;;;;8.59;89.14;95187.00;30001;983;1880;-58
2022/09/27 02:56:59;;;;;;;;;;;;;;;8.59;88.60;95189.69;30001;983;1862;-56
2022/09/27 02:57:48;;;;;;;;;;;;;;;8.52;88.46;95187.47;30001;983;1858;-55
2022/09/27 02:58:48;;;;;;;;;;;;;;;8.51;87.99;95190.50;30001;983;1867;-57
2022/09/27 02:59:29;;;;;;;;;;;;;;;8.45;88.46;95192.56;30001;983;1876;-56
2022/09/27 03:00:12;;;;;;;;;;;;;;;8.43;89.00;95194.78;30001;983;1876;-55
2022/09/27 03:01:06;;;;;;;;;;;;;;;8.37;89.75;95190.66;30001;982;1880;-55
2022/09/27 03:01:47;;;;;;;;;;;;;;;8.36;89.97;95184.47;30001;982;1872;-55
2022/09/27 03:02:23;;;;;;;;;;;;;;;8.35;89.20;95193.69;30001;982;1881;-51
2022/09/27 03:03:01;;;;;;;;;;;;;;;8.34;89.30;95191.31;30001;983;1862;-55
2022/09/27 03:03:41;;;;;;;;;;;;;;;8.33;89.67;95189.72;30001;983;1871;-55
2022/09/27 03:04:22;;;;;;;;;;;;;;;8.35;89.41;95199.09;30001;983;1875;-56
2022/09/27 03:05:00;;;;;;;;;;;;;;;8.35;89.47;95198.28;30001;961;1901;-55
2022/09/27 03:05:35;;;;;;;;;;;;;;;8.32;89.48;95188.09;30001;983;1875;-51
2022/09/27 03:06:11;;;;;;;;;;;;;;;8.43;87.80;95194.78;30001;983;1880;-62
2022/09/27 03:06:45;;;;;;;;;;;;;;;8.45;87.02;95192.56;30001;983;1876;-55
2022/09/27 03:07:16;;;;;;;;;;;;;;;8.42;86.95;95193.19;30001;982;1880;-53
2022/09/27 03:07:47;;;;;;;;;;;;;;;8.38;87.30;95187.62;30001;982;1862;-55
2022/09/27 03:08:18;;;;;;;;;;;;;;;8.36;87.91;95189.88;30001;982;1872;-54
2022/09/27 03:08:50;;;;;;;;;;;;;;;8.33;88.25;95187.00;30001;982;1875;-53
2022/09/27 03:09:23;;;;;;;;;;;;;;;8.29;88.27;95200.34;30001;982;1880;-53
2022/09/27 03:09:55;;;;;;;;;;;;;;;8.30;88.50;95196.53;30001;982;1863;-56
2022/09/27 03:10:30;;;;;;;;;;;;;;;8.32;88.18;95198.91;30001;983;1871;-54
2022/09/27 03:11:01;;;;;;;;;;;;;;;8.31;87.95;95202.75;30001;965;1847;-57
2022/09/27 03:11:32;;;;;;;;;;;;;;;8.36;87.79;95199.87;30001;983;1880;-54
2022/09/27 03:12:03;;;;;;;;;;;;;;;8.39;87.65;95204.66;30001;983;1876;-54
2022/09/27 03:12:38;;;;;;;;;;;;;;;8.38;87.39;95198.44;30001;983;1880;-54
2022/09/27 03:13:09;;;;;;;;;;;;;;;8.36;87.67;95208.00;30001;983;1875;-56
2022/09/27 03:13:41;;;;;;;;;;;;;;;8.38;87.62;95203.06;30001;983;1867;-54
2022/09/27 03:14:12;;;;;;;;;;;;;;;8.40;87.21;95206.25;30001;983;1867;-55
2022/09/27 03:14:43;;;;;;;;;;;;;;;8.38;86.89;95197.66;30001;982;1880;-55
2022/09/27 03:15:14;;;;;;;;;;;;;;;8.35;87.07;95203.69;30001;982;1876;-54
2022/09/27 03:15:45;;;;;;;;;;;;;;;8.31;86.94;95202.75;30001;982;1880;-54
2022/09/27 03:16:15;;;;;;;;;;;;;;;8.30;87.44;95201.16;30001;982;1876;-54
2022/09/27 03:16:46;;;;;;;;;;;;;;;8.29;87.53;95207.66;30001;982;1867;-55
2022/09/27 03:17:17;;;;;;;;;;;;;;;8.30;87.26;95201.16;30001;982;1868;-54
2022/09/27 03:17:48;;;;;;;;;;;;;;;8.28;87.04;95192.56;30001;983;1880;-54
2022/09/27 03:18:19;;;;;;;;;;;;;;;8.27;87.34;95207.19;30001;983;1875;-54
2022/09/27 03:18:50;;;;;;;;;;;;;;;8.28;87.32;95197.97;30001;983;1879;-56
2022/09/27 03:19:21;;;;;;;;;;;;;;;8.29;87.01;95204.97;30001;983;1876;-54
2022/09/27 03:19:52;;;;;;;;;;;;;;;8.24;87.03;95203.22;30001;983;1880;-54
2022/09/27 03:20:26;;;;;;;;;;;;;;;8.22;87.53;95200.03;30001;983;1876;-54
2022/09/27 03:20:57;;;;;;;;;;;;;;;8.19;87.57;95210.69;30001;983;1867;-54
2022/09/27 03:21:28;;;;;;;;;;;;;;;8.16;88.16;95198.59;30001;983;1867;-53
2022/09/27 03:21:59;;;;;;;;;;;;;;;8.14;88.62;95200.81;30001;982;1880;-54
2022/09/27 03:22:30;;;;;;;;;;;;;;;8.13;88.83;95209.25;30001;982;1876;-53
2022/09/27 03:23:00;;;;;;;;;;;;;;;8.14;89.37;95208.13;30001;982;1880;-55